Time;durP1;ratioP1;P1;durP2;ratioP2;P2;SDS_P1;SDS_P2;PMS_P1;PMS_P2;Temp;Humidity;BMP_temperature;BMP_pressure;BME280_temperature;BME280_humidity;BME280_pressure;Samples;Min_cycle;Max_cycle;Signal;HPM_P1;HPM_P2
2023/04/30 00:02:12;;;;;;;5.70;4.35;;;19.60;63.00;;;;;;5042557;28;20144;-53
2023/04/30 00:04:37;;;;;;;7.22;4.85;;;19.50;63.00;;;;;;5027722;28;20072;-54
2023/04/30 00:07:03;;;;;;;7.50;4.40;;;19.50;62.90;;;;;;5031868;28;20102;-55
2023/04/30 00:09:28;;;;;;;13.23;4.95;;;19.60;63.00;;;;;;5041891;28;20033;-55
2023/04/30 00:11:54;;;;;;;7.72;4.38;;;19.50;63.00;;;;;;5031117;28;20077;-48
2023/04/30 00:14:20;;;;;;;8.05;5.07;;;19.50;62.90;;;;;;5040255;28;20040;-53
2023/04/30 00:16:45;;;;;;;8.85;4.50;;;19.50;62.90;;;;;;5037085;28;20028;-56
2023/04/30 00:19:11;;;;;;;7.13;4.63;;;19.50;63.00;;;;;;5042808;28;20403;-52
2023/04/30 00:21:36;;;;;;;5.65;4.10;;;19.50;62.90;;;;;;5038914;28;20033;-49
2023/04/30 00:24:02;;;;;;;7.70;4.20;;;19.50;62.90;;;;;;5037371;28;20602;-52
2023/04/30 00:26:28;;;;;;;7.30;4.55;;;19.50;62.90;;;;;;5018087;28;20123;-52
2023/04/30 00:28:54;;;;;;;5.85;4.70;;;19.50;62.90;;;;;;5034664;28;20155;-56
2023/04/30 00:31:19;;;;;;;7.72;4.43;;;19.50;62.90;;;;;;5030527;28;20120;-54
2023/04/30 00:33:45;;;;;;;9.32;4.10;;;19.50;62.90;;;;;;5031844;28;20483;-54
2023/04/30 00:36:11;;;;;;;7.90;4.55;;;19.50;62.90;;;;;;5036407;28;20041;-51
2023/04/30 00:38:36;;;;;;;4.25;3.85;;;19.50;62.90;;;;;;5033100;28;20036;-49
2023/04/30 00:41:02;;;;;;;6.97;4.38;;;19.50;62.90;;;;;;5035267;28;20025;-54
2023/04/30 00:43:28;;;;;;;5.50;4.60;;;19.50;62.90;;;;;;5041067;28;20549;-53
2023/04/30 00:45:53;;;;;;;5.93;3.85;;;19.50;63.50;;;;;;5030595;28;20116;-53
2023/04/30 00:48:19;;;;;;;4.82;3.70;;;19.50;62.90;;;;;;5025479;28;20036;-58
2023/04/30 00:50:44;;;;;;;5.40;3.97;;;19.50;62.80;;;;;;5034402;28;20036;-49
2023/04/30 00:53:13;;;;;;;5.90;4.22;;;19.50;62.90;;;;;;5041890;28;20041;-53
2023/04/30 00:55:40;;;;;;;6.22;4.60;;;19.50;62.90;;;;;;5027308;28;20060;-52
2023/04/30 00:58:07;;;;;;;5.45;3.95;;;19.50;62.80;;;;;;5017926;28;20048;-58
2023/04/30 01:00:33;;;;;;;6.25;3.55;;;19.50;62.80;;;;;;5031675;28;20771;-54
2023/04/30 01:02:59;;;;;;;4.47;3.78;;;19.50;62.80;;;;;;5034762;28;20033;-55
2023/04/30 01:05:25;;;;;;;5.07;3.67;;;19.40;62.70;;;;;;5041908;28;20104;-50
2023/04/30 01:07:52;;;;;;;4.95;4.43;;;19.50;62.70;;;;;;5024886;28;20602;-56
2023/04/30 01:10:18;;;;;;;5.35;3.90;;;19.50;62.70;;;;;;5037662;28;20379;-52
2023/04/30 01:13:10;;;;;;;5.18;3.40;;;19.40;62.70;;;;;;5037471;28;20052;-51
2023/04/30 01:16:22;;;;;;;6.82;4.07;;;19.40;62.70;;;;;;5013049;28;20114;-51
2023/04/30 01:18:56;;;;;;;5.45;3.65;;;19.40;62.60;;;;;;5031033;28;20057;-49
2023/04/30 01:21:23;;;;;;;6.07;3.37;;;19.40;62.70;;;;;;5033847;28;20502;-51
2023/04/30 01:24:00;;;;;;;4.50;3.30;;;19.40;62.70;;;;;;5032076;28;20121;-52
2023/04/30 01:26:33;;;;;;;4.03;3.38;;;19.40;62.60;;;;;;5026373;28;20068;-57
2023/04/30 01:29:01;;;;;;;5.78;4.15;;;19.40;62.70;;;;;;5038979;28;20036;-48
2023/04/30 01:31:27;;;;;;;5.13;3.50;;;19.40;62.70;;;;;;5023179;28;20036;-52
2023/04/30 01:33:53;;;;;;;7.78;3.60;;;19.40;62.70;;;;;;5037548;28;20500;-58
2023/04/30 01:36:23;;;;;;;3.75;2.90;;;19.40;62.70;;;;;;5034409;28;20045;-55
2023/04/30 01:39:12;;;;;;;3.60;3.00;;;19.40;62.70;;;;;;5029517;28;20029;-55
2023/04/30 01:42:21;;;;;;;4.30;3.65;;;19.30;62.70;;;;;;5031145;28;20033;-50
2023/04/30 01:44:52;;;;;;;4.03;3.63;;;19.30;62.70;;;;;;5040074;28;20033;-49
2023/04/30 01:47:35;;;;;;;4.68;3.30;;;19.30;62.70;;;;;;5032966;28;20039;-48
2023/04/30 01:50:05;;;;;;;4.45;3.97;;;19.30;62.60;;;;;;5033614;28;20060;-50
2023/04/30 01:52:36;;;;;;;5.38;3.22;;;19.30;62.60;;;;;;5039762;28;20670;-50
2023/04/30 01:55:10;;;;;;;4.32;3.00;;;19.30;62.60;;;;;;5041555;28;20032;-54
2023/04/30 01:57:55;;;;;;;3.47;3.13;;;19.30;62.60;;;;;;5039313;28;20029;-50
2023/04/30 02:00:20;;;;;;;3.60;3.00;;;19.30;62.50;;;;;;5041230;28;20490;-52
2023/04/30 02:02:46;;;;;;;4.80;3.08;;;19.30;62.60;;;;;;5040642;28;20080;-50
2023/04/30 02:05:11;;;;;;;4.05;3.05;;;19.30;62.60;;;;;;5041260;28;20251;-55
2023/04/30 02:07:41;;;;;;;3.47;2.67;;;19.30;62.50;;;;;;5038846;28;20033;-57
2023/04/30 02:10:07;;;;;;;4.38;2.78;;;19.30;62.50;;;;;;5034764;28;20029;-54
2023/04/30 02:12:33;;;;;;;3.72;3.17;;;19.30;62.50;;;;;;5039819;28;20480;-50
2023/04/30 02:14:59;;;;;;;3.20;2.90;;;19.30;62.50;;;;;;5034070;28;20525;-53
2023/04/30 02:17:25;;;;;;;4.30;3.05;;;19.20;62.50;;;;;;5040945;28;20064;-57
2023/04/30 02:19:50;;;;;;;3.03;2.70;;;19.20;62.50;;;;;;5033963;28;20114;-51
2023/04/30 02:22:16;;;;;;;4.18;2.90;;;19.20;62.50;;;;;;5040761;28;20040;-56
2023/04/30 02:24:41;;;;;;;4.05;2.75;;;19.20;62.50;;;;;;5034430;28;20136;-51
2023/04/30 02:27:07;;;;;;;2.95;2.63;;;19.20;62.50;;;;;;5041095;28;20033;-49
2023/04/30 02:29:33;;;;;;;4.97;2.92;;;19.20;62.50;;;;;;5034724;28;20037;-50
2023/04/30 02:31:58;;;;;;;3.75;2.95;;;19.20;62.50;;;;;;5040169;28;20481;-49
2023/04/30 02:34:24;;;;;;;5.43;2.85;;;19.20;62.50;;;;;;5036170;28;20032;-54
2023/04/30 02:36:50;;;;;;;3.88;2.40;;;19.10;62.50;;;;;;5040641;28;20064;-49
2023/04/30 02:39:15;;;;;;;3.20;2.83;;;19.20;62.50;;;;;;5039985;28;20060;-54
2023/04/30 02:41:41;;;;;;;5.13;2.58;;;19.10;62.50;;;;;;5036240;28;20109;-50
2023/04/30 02:44:06;;;;;;;3.08;2.65;;;19.10;62.40;;;;;;5037756;28;20025;-55
2023/04/30 02:46:32;;;;;;;3.90;2.58;;;19.10;62.40;;;;;;5038912;28;20417;-50
2023/04/30 02:48:57;;;;;;;2.85;2.63;;;19.10;62.50;;;;;;5037648;28;20094;-50
2023/04/30 02:51:23;;;;;;;2.83;2.35;;;19.10;62.40;;;;;;5041350;28;20029;-57
2023/04/30 02:53:48;;;;;;;2.55;1.88;;;19.10;62.40;;;;;;5030715;28;20033;-50
2023/04/30 02:56:14;;;;;;;2.75;2.55;;;19.10;62.40;;;;;;5040508;28;20080;-54
2023/04/30 02:58:40;;;;;;;3.63;2.30;;;19.10;62.40;;;;;;5037968;28;20044;-51
2023/04/30 03:01:05;;;;;;;4.55;2.60;;;19.10;62.40;;;;;;5040785;28;20030;-53
2023/04/30 03:03:32;;;;;;;4.50;2.47;;;19.10;62.40;;;;;;5040133;28;20040;-47
2023/04/30 03:05:58;;;;;;;3.50;2.60;;;19.10;62.40;;;;;;5033309;28;20033;-50
2023/04/30 03:08:24;;;;;;;2.90;2.50;;;19.10;62.30;;;;;;5022405;28;20036;-52
2023/04/30 03:10:50;;;;;;;3.38;2.30;;;19.10;62.30;;;;;;5038953;28;20025;-48
2023/04/30 03:13:15;;;;;;;2.67;2.05;;;19.10;62.20;;;;;;5040773;28;20064;-47
2023/04/30 03:15:41;;;;;;;2.20;2.00;;;19.10;62.20;;;;;;5032463;28;20052;-50
2023/04/30 03:18:06;;;;;;;2.97;2.42;;;19.10;62.20;;;;;;5039249;28;20029;-56
2023/04/30 03:20:32;;;;;;;2.33;2.13;;;19.10;62.20;;;;;;5038983;28;20514;-52
2023/04/30 03:22:57;;;;;;;2.20;2.00;;;19.10;62.20;;;;;;5039880;28;20024;-51
2023/04/30 03:25:23;;;;;;;2.70;2.20;;;19.10;62.20;;;;;;5040551;28;20558;-53
2023/04/30 03:27:48;;;;;;;2.67;1.90;;;19.10;62.10;;;;;;5040844;28;20043;-52
2023/04/30 03:30:14;;;;;;;3.53;2.10;;;19.10;62.00;;;;;;5018987;28;20048;-57
2023/04/30 03:32:39;;;;;;;2.28;2.05;;;19.10;62.00;;;;;;5039898;28;20065;-49
2023/04/30 03:35:05;;;;;;;2.40;2.13;;;19.10;62.00;;;;;;5044963;23;20055;-50
2023/04/30 03:37:31;;;;;;;2.03;1.83;;;19.10;62.00;;;;;;5042174;28;20099;-50
2023/04/30 03:39:56;;;;;;;2.25;1.90;;;19.10;62.00;;;;;;5038507;28;20460;-51
2023/04/30 03:42:22;;;;;;;2.13;1.88;;;19.10;61.90;;;;;;5009987;28;20136;-49
2023/04/30 03:44:47;;;;;;;3.47;2.00;;;19.10;61.90;;;;;;5036548;28;20037;-50
2023/04/30 03:47:13;;;;;;;2.03;1.80;;;19.10;61.80;;;;;;5036140;28;20033;-50
2023/04/30 03:49:38;;;;;;;2.30;1.95;;;19.10;61.80;;;;;;5024206;28;20040;-47
2023/04/30 03:52:05;;;;;;;3.17;2.33;;;19.10;61.90;;;;;;5024529;28;20157;-50
2023/04/30 03:54:32;;;;;;;2.47;1.67;;;19.10;61.80;;;;;;5028196;28;20681;-49
2023/04/30 03:56:58;;;;;;;2.45;2.00;;;19.10;61.80;;;;;;5030319;28;20044;-48
2023/04/30 03:59:24;;;;;;;2.22;1.70;;;19.00;61.80;;;;;;5023581;28;20037;-49
2023/04/30 04:01:50;;;;;;;1.77;1.63;;;19.00;61.70;;;;;;5031677;28;20116;-51
2023/04/30 04:04:16;;;;;;;1.85;1.75;;;19.00;61.70;;;;;;5041348;28;20028;-52
2023/04/30 04:06:42;;;;;;;3.55;1.95;;;19.10;61.70;;;;;;5031418;28;20087;-50
2023/04/30 04:09:07;;;;;;;2.00;1.80;;;19.10;61.60;;;;;;5026219;28;20148;-51
2023/04/30 04:11:33;;;;;;;2.10;1.60;;;19.00;61.50;;;;;;5004077;28;20033;-50
2023/04/30 04:13:59;;;;;;;1.80;1.30;;;19.10;61.60;;;;;;5012559;28;20032;-48
2023/04/30 04:16:25;;;;;;;2.72;1.90;;;19.10;61.50;;;;;;5022943;28;20036;-59
2023/04/30 04:18:51;;;;;;;2.50;1.70;;;19.10;61.50;;;;;;5020898;28;20026;-51
2023/04/30 04:21:17;;;;;;;2.17;1.92;;;19.10;61.40;;;;;;5021252;28;20083;-51
2023/04/30 04:23:43;;;;;;;1.80;1.60;;;19.10;61.40;;;;;;5031143;28;20025;-49
2023/04/30 04:26:09;;;;;;;2.45;1.70;;;19.10;61.20;;;;;;5027798;28;20025;-48
2023/04/30 04:28:35;;;;;;;3.20;2.08;;;19.10;61.10;;;;;;5022729;28;20140;-48
2023/04/30 04:31:02;;;;;;;2.13;1.77;;;19.20;61.10;;;;;;5028263;28;20034;-49
2023/04/30 04:33:27;;;;;;;2.47;1.70;;;19.20;61.00;;;;;;5029742;28;20017;-49
2023/04/30 04:35:53;;;;;;;6.22;1.50;;;19.20;61.00;;;;;;5030464;28;20032;-50
2023/04/30 04:38:18;;;;;;;1.60;1.35;;;19.20;60.90;;;;;;5028368;28;20490;-52
2023/04/30 04:40:54;;;;;;;2.08;1.60;;;19.20;60.90;;;;;;5018493;28;20127;-49
2023/04/30 04:43:19;;;;;;;;;;;19.20;61.00;;;;;;5024206;28;20092;-52
2023/04/30 04:45:46;;;;;;;3.00;1.90;;;19.20;61.00;;;;;;5025089;28;20282;-49
2023/04/30 04:48:12;;;;;;;2.70;1.75;;;19.20;61.00;;;;;;5031418;28;20027;-49
2023/04/30 04:50:38;;;;;;;2.55;1.80;;;19.20;61.00;;;;;;5025680;28;20760;-49
2023/04/30 04:53:03;;;;;;;2.10;1.90;;;19.20;61.00;;;;;;5032713;28;20557;-50
2023/04/30 04:55:29;;;;;;;2.53;1.75;;;19.20;60.90;;;;;;5029508;28;20037;-49
2023/04/30 04:57:54;;;;;;;2.47;1.83;;;19.20;60.90;;;;;;5021476;28;20068;-51
2023/04/30 05:00:21;;;;;;;2.75;1.25;;;19.20;60.80;;;;;;5021877;28;20055;-51
2023/04/30 05:02:47;;;;;;;5.20;1.40;;;19.20;60.80;;;;;;5027497;28;20041;-49
2023/04/30 05:05:13;;;;;;;1.73;1.58;;;19.20;60.80;;;;;;5032609;28;20084;-52
2023/04/30 05:07:39;;;;;;;2.20;1.58;;;19.30;60.80;;;;;;5018712;28;20034;-48
2023/04/30 05:10:05;;;;;;;2.92;1.77;;;19.30;60.70;;;;;;5015885;28;20517;-50
2023/04/30 05:12:31;;;;;;;1.80;1.20;;;19.30;60.70;;;;;;5034118;28;20064;-49
2023/04/30 05:14:56;;;;;;;2.15;1.60;;;19.30;60.60;;;;;;5028672;28;20045;-52
2023/04/30 05:17:22;;;;;;;2.40;1.70;;;19.30;60.60;;;;;;5006580;28;20034;-50
2023/04/30 05:19:49;;;;;;;3.47;1.73;;;19.30;60.60;;;;;;5019078;28;20022;-48
2023/04/30 05:22:15;;;;;;;2.25;1.60;;;19.30;60.60;;;;;;5026227;28;25246;-49
2023/04/30 05:24:40;;;;;;;2.58;1.77;;;19.30;60.70;;;;;;5034834;28;20465;-51
2023/04/30 05:27:06;;;;;;;2.10;1.40;;;19.20;60.70;;;;;;5020441;28;20532;-51
2023/04/30 05:29:32;;;;;;;4.72;1.63;;;19.30;60.80;;;;;;5025683;28;20040;-51
2023/04/30 05:31:57;;;;;;;3.63;1.55;;;19.20;60.80;;;;;;5029697;28;20072;-53
2023/04/30 05:34:23;;;;;;;2.15;1.40;;;19.20;60.80;;;;;;5038888;28;20036;-51
2023/04/30 05:36:48;;;;;;;2.78;1.65;;;19.20;60.80;;;;;;5023185;28;20872;-48
2023/04/30 05:39:14;;;;;;;2.13;1.60;;;19.20;60.70;;;;;;5028283;28;20512;-49
2023/04/30 05:41:39;;;;;;;1.42;1.33;;;19.20;60.70;;;;;;5021960;28;20033;-50
2023/04/30 05:44:05;;;;;;;2.67;1.80;;;19.20;60.80;;;;;;5021018;28;20493;-51
2023/04/30 05:46:31;;;;;;;1.98;1.40;;;19.20;60.70;;;;;;5000432;28;20083;-51
2023/04/30 05:48:57;;;;;;;4.55;1.38;;;19.20;60.80;;;;;;5019150;28;20465;-50
2023/04/30 05:51:22;;;;;;;4.03;1.52;;;19.20;60.70;;;;;;5008585;28;20037;-49
2023/04/30 05:53:48;;;;;;;2.45;1.67;;;19.20;60.70;;;;;;5030809;28;20051;-53
2023/04/30 05:56:13;;;;;;;4.72;1.50;;;19.20;60.70;;;;;;5029622;28;20029;-52
2023/04/30 05:58:39;;;;;;;1.55;1.35;;;19.20;60.70;;;;;;5025227;28;20033;-47
2023/04/30 06:01:05;;;;;;;2.58;1.65;;;19.20;60.70;;;;;;5022910;28;20398;-52
2023/04/30 06:03:30;;;;;;;3.67;1.60;;;19.20;60.70;;;;;;5033910;28;20033;-50
2023/04/30 06:05:56;;;;;;;2.75;1.90;;;19.20;60.70;;;;;;5024197;28;20521;-52
2023/04/30 06:08:21;;;;;;;1.45;1.35;;;19.10;60.60;;;;;;5028373;28;20037;-49
2023/04/30 06:10:47;;;;;;;1.83;1.40;;;19.20;60.70;;;;;;5023223;28;20037;-50
2023/04/30 06:13:13;;;;;;;2.58;1.40;;;19.10;60.60;;;;;;5015046;28;20041;-53
2023/04/30 06:15:40;;;;;;;2.67;1.60;;;19.20;61.30;;;;;;5025757;28;20029;-50
2023/04/30 06:18:06;;;;;;;1.98;1.38;;;19.20;60.70;;;;;;5021966;28;20061;-52
2023/04/30 06:20:31;;;;;;;2.47;1.40;;;19.10;60.60;;;;;;5021391;28;20080;-51
2023/04/30 06:22:57;;;;;;;1.98;1.35;;;19.20;60.70;;;;;;5024012;28;20029;-51
2023/04/30 06:25:22;;;;;;;1.98;1.60;;;19.20;60.60;;;;;;5027134;28;20030;-52
2023/04/30 06:27:50;;;;;;;2.08;1.30;;;19.10;60.60;;;;;;5017571;28;20169;-52
2023/04/30 06:30:16;;;;;;;1.58;1.40;;;19.20;60.60;;;;;;5023865;28;20048;-50
2023/04/30 06:32:41;;;;;;;2.45;1.70;;;19.10;60.50;;;;;;5022929;28;20034;-49
2023/04/30 06:35:07;;;;;;;2.20;1.25;;;19.10;60.50;;;;;;5028068;28;20037;-49
2023/04/30 06:37:36;;;;;;;2.20;1.45;;;19.10;60.50;;;;;;5024612;28;20034;-51
2023/04/30 06:40:03;;;;;;;3.08;1.30;;;19.20;60.60;;;;;;5024163;28;20072;-47
2023/04/30 06:42:33;;;;;;;1.77;1.17;;;19.10;60.50;;;;;;5026057;28;20033;-49
2023/04/30 06:45:00;;;;;;;2.15;1.35;;;19.10;60.50;;;;;;5029839;28;20037;-51
2023/04/30 06:47:25;;;;;;;2.55;1.60;;;19.10;60.50;;;;;;5023295;28;20117;-49
2023/04/30 06:49:51;;;;;;;1.58;1.40;;;19.10;60.50;;;;;;5025544;28;20099;-48
2023/04/30 06:52:16;;;;;;;1.60;1.33;;;19.10;60.50;;;;;;5022460;28;20621;-50
2023/04/30 06:54:42;;;;;;;2.22;1.50;;;19.10;60.60;;;;;;5022935;28;20044;-51
2023/04/30 06:57:08;;;;;;;2.38;1.30;;;19.10;60.50;;;;;;5004656;28;20026;-47
2023/04/30 06:59:33;;;;;;;2.10;1.80;;;19.10;60.50;;;;;;5022801;28;20728;-50
2023/04/30 07:01:59;;;;;;;1.67;1.25;;;19.10;60.50;;;;;;5022544;28;20032;-51
2023/04/30 07:04:25;;;;;;;2.47;1.50;;;19.10;60.50;;;;;;5026293;28;20028;-50
2023/04/30 07:06:51;;;;;;;1.85;1.10;;;19.10;60.50;;;;;;5029337;28;20115;-51
2023/04/30 07:09:16;;;;;;;2.88;1.50;;;19.10;60.50;;;;;;5020143;28;20092;-50
2023/04/30 07:11:42;;;;;;;3.47;1.70;;;19.10;60.50;;;;;;5004722;28;20034;-50
2023/04/30 07:14:07;;;;;;;2.00;1.42;;;19.10;60.50;;;;;;5031044;28;20453;-51
2023/04/30 07:16:33;;;;;;;3.22;1.70;;;19.10;60.50;;;;;;5027946;28;20036;-50
2023/04/30 07:18:59;;;;;;;2.80;1.30;;;19.10;60.50;;;;;;5031693;28;20029;-52
2023/04/30 07:21:24;;;;;;;2.78;1.52;;;19.10;60.50;;;;;;5030893;28;20107;-55
2023/04/30 07:23:50;;;;;;;6.22;1.83;;;19.10;60.60;;;;;;5020300;28;20030;-51
2023/04/30 07:26:16;;;;;;;5.30;1.33;;;19.10;60.70;;;;;;5032967;28;20124;-53
2023/04/30 07:28:42;;;;;;;5.70;1.70;;;19.10;60.70;;;;;;5029002;28;20456;-52
2023/04/30 07:31:07;;;;;;;3.85;1.60;;;19.10;60.80;;;;;;5030569;28;20132;-53
2023/04/30 07:33:33;;;;;;;4.43;1.10;;;19.20;60.80;;;;;;5021512;28;20116;-49
2023/04/30 07:35:58;;;;;;;7.82;1.75;;;19.20;60.90;;;;;;5028798;28;20057;-50
2023/04/30 07:38:24;;;;;;;2.92;1.95;;;19.20;60.90;;;;;;5031840;28;20017;-49
2023/04/30 07:40:49;;;;;;;6.60;2.25;;;19.20;60.80;;;;;;5021347;28;20022;-51
2023/04/30 07:43:15;;;;;;;7.70;1.98;;;19.20;60.80;;;;;;5023185;28;20026;-48
2023/04/30 07:45:41;;;;;;;5.32;1.77;;;19.20;60.80;;;;;;5023474;28;20112;-49
2023/04/30 07:48:07;;;;;;;14.60;2.55;;;19.20;60.70;;;;;;5027873;28;20033;-52
2023/04/30 07:50:33;;;;;;;5.63;1.77;;;19.20;60.70;;;;;;5022529;28;20083;-50
2023/04/30 07:52:59;;;;;;;7.78;2.03;;;19.20;60.60;;;;;;5025240;28;20041;-52
2023/04/30 07:55:25;;;;;;;4.45;2.20;;;19.30;60.70;;;;;;5023527;28;20041;-51
2023/04/30 07:57:50;;;;;;;7.35;2.78;;;19.20;60.50;;;;;;5020759;28;20038;-50
2023/04/30 08:00:16;;;;;;;7.93;2.45;;;19.20;60.50;;;;;;5022428;28;20937;-48
2023/04/30 08:02:44;;;;;;;6.63;2.45;;;19.30;60.50;;;;;;5008752;28;20037;-53
2023/04/30 08:05:10;;;;;;;9.27;2.92;;;19.30;60.40;;;;;;5008513;28;20757;-53
2023/04/30 08:07:35;;;;;;;8.00;3.22;;;19.30;60.40;;;;;;5018828;28;20057;-50
2023/04/30 08:10:01;;;;;;;6.55;2.50;;;19.30;60.40;;;;;;5015295;28;20474;-49
2023/04/30 08:12:26;;;;;;;6.82;2.53;;;19.30;60.40;;;;;;5022366;28;20033;-58
2023/04/30 08:15:05;;;;;;;5.47;2.45;;;19.20;60.30;;;;;;5023106;28;20068;-52
2023/04/30 08:17:34;;;;;;;7.82;2.53;;;19.30;60.30;;;;;;5019746;28;20148;-51
2023/04/30 08:20:00;;;;;;;7.70;2.65;;;19.30;60.20;;;;;;5030313;28;20040;-51
2023/04/30 08:22:26;;;;;;;4.93;3.20;;;19.20;60.20;;;;;;5025082;28;20025;-48
2023/04/30 08:24:51;;;;;;;18.65;9.63;;;19.30;60.20;;;;;;5014761;28;20036;-51
2023/04/30 08:27:17;;;;;;;44.65;19.95;;;19.30;60.30;;;;;;5021123;28;20149;-50
2023/04/30 08:29:42;;;;;;;46.30;19.95;;;19.20;61.00;;;;;;5022536;28;20049;-50
2023/04/30 08:32:08;;;;;;;47.97;20.63;;;19.20;61.50;;;;;;5024090;28;20034;-50
2023/04/30 08:34:33;;;;;;;47.38;21.27;;;19.30;61.60;;;;;;5024686;28;20033;-51
2023/04/30 08:37:00;;;;;;;39.65;19.48;;;19.30;61.70;;;;;;5022778;28;20068;-49
2023/04/30 08:39:25;;;;;;;39.10;19.58;;;19.20;61.60;;;;;;5025056;28;20033;-52
2023/04/30 08:41:54;;;;;;;36.67;16.73;;;19.30;61.40;;;;;;5029675;28;20394;-48
2023/04/30 08:44:22;;;;;;;44.35;17.95;;;19.20;61.40;;;;;;5013454;28;20372;-49
2023/04/30 08:46:57;;;;;;;35.75;17.17;;;19.20;61.40;;;;;;5007697;28;20521;-48
2023/04/30 08:49:24;;;;;;;29.85;16.08;;;19.20;61.20;;;;;;5017683;28;20053;-49
2023/04/30 08:51:49;;;;;;;35.70;16.10;;;19.20;61.20;;;;;;5024828;28;20036;-49
2023/04/30 08:54:17;;;;;;;35.85;15.98;;;19.20;61.10;;;;;;5027849;28;20033;-49
2023/04/30 08:56:44;;;;;;;28.38;14.48;;;19.20;61.00;;;;;;5019400;28;20049;-49
2023/04/30 08:59:11;;;;;;;33.80;15.10;;;19.20;61.20;;;;;;5023833;28;20044;-52
2023/04/30 09:01:37;;;;;;;27.50;13.30;;;19.20;61.60;;;;;;5022827;28;20125;-51
2023/04/30 09:04:04;;;;;;;26.58;14.25;;;19.10;61.70;;;;;;5021010;28;20452;-48
2023/04/30 09:06:30;;;;;;;25.30;12.50;;;19.20;61.80;;;;;;5025591;28;20037;-49
2023/04/30 09:08:56;;;;;;;25.90;12.13;;;19.20;61.90;;;;;;5019326;28;20576;-49
2023/04/30 09:11:26;;;;;;;24.55;11.70;;;19.20;61.80;;;;;;5035566;28;20026;-49
2023/04/30 09:13:54;;;;;;;24.52;11.95;;;19.10;61.80;;;;;;5020336;28;20041;-49
2023/04/30 09:16:20;;;;;;;29.98;12.50;;;19.10;61.90;;;;;;5023042;28;20331;-50
2023/04/30 09:18:46;;;;;;;24.63;11.15;;;19.10;62.00;;;;;;5022748;28;20087;-49
2023/04/30 09:21:12;;;;;;;21.98;11.05;;;19.10;61.70;;;;;;5028529;28;20034;-52
2023/04/30 09:23:57;;;;;;;29.38;10.57;;;19.10;61.70;;;;;;5026087;28;20078;-49
2023/04/30 09:26:29;;;;;;;23.27;9.60;;;19.10;61.60;;;;;;5023434;28;20024;-51
2023/04/30 09:28:59;;;;;;;23.63;8.80;;;19.10;61.60;;;;;;5015933;28;20030;-50
2023/04/30 09:31:25;;;;;;;27.42;9.40;;;19.10;61.60;;;;;;5018242;28;20104;-46
2023/04/30 09:33:52;;;;;;;24.98;10.07;;;19.10;61.60;;;;;;5021862;28;20033;-52
2023/04/30 09:36:17;;;;;;;25.75;9.20;;;19.10;61.50;;;;;;5029173;28;20056;-50
2023/04/30 09:38:43;;;;;;;24.90;8.15;;;19.10;61.70;;;;;;5020597;28;20060;-50
2023/04/30 09:41:22;;;;;;;22.30;8.63;;;19.10;61.60;;;;;;5016453;28;20018;-50
2023/04/30 09:43:47;;;;;;;24.17;8.80;;;19.10;61.60;;;;;;5020038;28;20038;-51
2023/04/30 09:46:13;;;;;;;28.23;8.90;;;19.10;61.70;;;;;;5023052;28;20053;-50
2023/04/30 09:48:41;;;;;;;21.80;7.70;;;19.10;61.70;;;;;;5019125;28;20637;-49
2023/04/30 09:51:07;;;;;;;19.90;7.20;;;19.10;61.60;;;;;;5015463;28;20036;-52
2023/04/30 09:53:36;;;;;;;23.80;8.38;;;19.20;61.70;;;;;;5020748;28;20032;-50
2023/04/30 09:56:07;;;;;;;24.33;7.28;;;19.20;61.60;;;;;;5000877;28;20042;-51
2023/04/30 09:58:37;;;;;;;18.38;5.47;;;19.20;61.40;;;;;;5023294;28;20034;-49
2023/04/30 10:01:06;;;;;;;13.27;5.10;;;19.20;61.30;;;;;;5013366;28;20080;-51
2023/04/30 10:03:32;;;;;;;21.20;6.28;;;19.20;61.20;;;;;;5005972;28;20429;-50
2023/04/30 10:05:58;;;;;;;9.52;4.68;;;19.10;61.10;;;;;;5007590;28;20033;-50
2023/04/30 10:08:29;;;;;;;13.50;5.95;;;19.20;61.00;;;;;;5017425;28;20478;-52
2023/04/30 10:11:00;;;;;;;13.68;4.45;;;19.20;61.00;;;;;;5005974;28;20036;-53
2023/04/30 10:13:30;;;;;;;12.07;4.65;;;19.10;60.70;;;;;;5017757;28;20052;-47
2023/04/30 10:16:00;;;;;;;10.98;4.70;;;19.20;60.70;;;;;;5028366;28;20026;-50
2023/04/30 10:18:33;;;;;;;8.98;4.13;;;19.20;60.70;;;;;;4981317;28;20059;-51
2023/04/30 10:21:02;;;;;;;10.63;3.85;;;19.20;60.50;;;;;;5001285;28;20105;-51
2023/04/30 10:23:29;;;;;;;15.90;4.45;;;19.20;60.50;;;;;;5021405;28;20033;-52
2023/04/30 10:25:56;;;;;;;7.65;3.30;;;19.20;60.30;;;;;;5008600;28;20049;-51
2023/04/30 10:28:22;;;;;;;9.10;4.72;;;19.20;60.20;;;;;;5021427;28;20057;-52
2023/04/30 10:30:50;;;;;;;7.90;3.30;;;19.20;60.10;;;;;;5021938;28;20332;-49
2023/04/30 10:33:30;;;;;;;8.25;3.25;;;19.20;60.10;;;;;;5017204;28;20049;-51
2023/04/30 10:35:59;;;;;;;8.50;3.42;;;19.20;60.60;;;;;;5020430;28;20048;-50
2023/04/30 10:38:27;;;;;;;6.95;3.53;;;19.20;59.90;;;;;;5014858;28;20034;-49
2023/04/30 10:40:58;;;;;;;8.05;3.40;;;19.10;59.80;;;;;;5028761;28;20030;-52
2023/04/30 10:43:24;;;;;;;8.13;3.17;;;19.20;59.70;;;;;;5029224;28;20029;-49
2023/04/30 10:45:50;;;;;;;8.38;2.58;;;19.20;59.60;;;;;;5021833;28;20030;-49
2023/04/30 10:48:23;;;;;;;10.02;3.47;;;19.10;59.50;;;;;;5015840;28;20521;-52
2023/04/30 10:50:54;;;;;;;5.50;2.92;;;19.10;59.50;;;;;;5021155;28;20120;-49
2023/04/30 10:53:21;;;;;;;8.45;2.72;;;19.10;59.40;;;;;;5021417;28;20037;-50
2023/04/30 10:55:52;;;;;;;5.50;2.55;;;19.10;59.20;;;;;;5025416;28;20044;-48
2023/04/30 10:58:24;;;;;;;8.02;2.88;;;19.10;59.20;;;;;;5018222;28;21016;-50
2023/04/30 11:01:00;;;;;;;5.13;2.53;;;19.10;59.20;;;;;;5024055;28;20033;-49
2023/04/30 11:03:27;;;;;;;;;;;19.10;59.20;;;;;;5017341;28;20313;-52
2023/04/30 11:05:52;;;;;;;5.95;2.55;;;19.20;59.10;;;;;;5020448;28;20597;-50
2023/04/30 11:08:20;;;;;;;5.30;2.60;;;19.20;59.00;;;;;;5018913;28;20119;-48
2023/04/30 11:11:16;;;;;;;6.13;2.92;;;19.10;58.90;;;;;;5023325;28;20041;-50
2023/04/30 11:13:46;;;;;;;5.78;2.50;;;19.10;59.00;;;;;;5018315;28;20033;-49
2023/04/30 11:16:14;;;;;;;5.20;2.55;;;19.20;58.90;;;;;;5023811;28;20033;-50
2023/04/30 11:18:42;;;;;;;3.22;2.60;;;19.20;58.90;;;;;;5004537;28;20067;-49
2023/04/30 11:21:09;;;;;;;4.10;1.98;;;19.10;58.90;;;;;;5018270;28;20049;-51
2023/04/30 11:23:34;;;;;;;4.20;1.95;;;19.10;58.50;;;;;;5026984;28;20033;-53
2023/04/30 11:26:00;;;;;;;4.13;1.98;;;19.20;58.50;;;;;;5020658;28;20030;-50
2023/04/30 11:28:27;;;;;;;5.32;2.30;;;19.10;58.30;;;;;;5029541;28;20025;-53
2023/04/30 11:30:58;;;;;;;4.28;2.00;;;19.10;58.40;;;;;;5021662;28;20033;-53
2023/04/30 11:33:31;;;;;;;5.68;2.25;;;19.20;58.30;;;;;;5029567;28;20494;-50
2023/04/30 11:35:59;;;;;;;4.57;2.40;;;19.20;58.30;;;;;;5016362;28;20044;-49
2023/04/30 11:38:29;;;;;;;7.55;2.80;;;19.20;58.40;;;;;;5027835;28;20033;-52
2023/04/30 11:40:56;;;;;;;7.13;2.15;;;19.20;58.50;;;;;;4981864;28;20490;-52
2023/04/30 11:43:23;;;;;;;7.10;2.00;;;19.10;58.60;;;;;;5025242;28;20036;-52
2023/04/30 11:46:04;;;;;;;7.72;2.22;;;19.20;58.70;;;;;;5020872;28;20052;-51
2023/04/30 11:48:41;;;;;;;3.90;2.05;;;19.20;58.80;;;;;;5018125;28;20149;-50
2023/04/30 11:51:16;;;;;;;5.68;2.33;;;19.20;58.90;;;;;;5026654;28;20030;-48
2023/04/30 11:53:44;;;;;;;6.25;2.17;;;19.20;59.00;;;;;;5001691;28;20421;-51
2023/04/30 11:56:09;;;;;;;6.00;2.90;;;19.20;59.10;;;;;;5020876;28;20120;-51
2023/04/30 11:58:37;;;;;;;6.20;2.83;;;19.20;59.20;;;;;;5023985;28;20128;-49
2023/04/30 12:01:04;;;;;;;5.65;2.90;;;19.20;59.30;;;;;;5014331;28;20037;-51
2023/04/30 12:03:30;;;;;;;8.48;2.95;;;19.20;59.70;;;;;;5010249;28;20372;-51
2023/04/30 12:05:55;;;;;;;7.70;3.60;;;19.20;60.40;;;;;;5014513;28;20088;-52
2023/04/30 12:08:21;;;;;;;9.02;3.47;;;19.20;60.60;;;;;;5023726;28;20040;-51
2023/04/30 12:10:47;;;;;;;6.72;2.90;;;19.20;60.80;;;;;;5017789;28;20119;-48
2023/04/30 12:13:13;;;;;;;9.68;3.10;;;19.20;60.90;;;;;;5030768;28;20041;-49
2023/04/30 12:15:39;;;;;;;5.95;2.50;;;19.30;61.00;;;;;;5021985;28;20060;-51
2023/04/30 12:18:12;;;;;;;9.38;3.22;;;19.20;61.10;;;;;;5014103;28;20034;-50
2023/04/30 12:20:39;;;;;;;6.28;3.05;;;19.30;61.10;;;;;;5020063;28;20559;-49
2023/04/30 12:23:05;;;;;;;7.90;3.22;;;19.20;61.10;;;;;;5018141;28;20033;-51
2023/04/30 12:25:39;;;;;;;7.55;3.67;;;19.20;61.30;;;;;;5026617;28;20123;-49
2023/04/30 12:28:04;;;;;;;7.57;2.85;;;19.20;60.90;;;;;;5015222;28;20033;-51
2023/04/30 12:30:30;;;;;;;4.90;2.67;;;19.20;60.50;;;;;;5025092;28;20103;-52
2023/04/30 12:32:57;;;;;;;6.32;2.60;;;19.20;60.70;;;;;;5019663;28;20457;-50
2023/04/30 12:35:23;;;;;;;3.72;2.78;;;19.20;60.70;;;;;;5020185;28;20065;-51
2023/04/30 12:37:51;;;;;;;7.93;2.97;;;19.20;60.70;;;;;;5023510;28;20502;-52
2023/04/30 12:40:25;;;;;;;9.18;2.67;;;19.20;60.70;;;;;;5016737;28;20271;-51
2023/04/30 12:42:58;;;;;;;5.95;2.53;;;19.20;60.50;;;;;;5018671;28;20033;-51
2023/04/30 12:45:43;;;;;;;5.95;2.38;;;19.20;60.40;;;;;;5002343;28;20518;-51
2023/04/30 12:48:08;;;;;;;6.50;2.60;;;19.20;60.30;;;;;;5018616;28;20029;-49